Boiestown, Canada
Current Conditions -  °F | °C
As of 2:00 AM on Wednesday 26 Nov 2014 (Local Time) from CYFC Reporting Station
Clear Clear  
Wind Chill: 33°   Ceiling: Unl
Heat Index: 39°   Visibility: 9mi
Dew Point: 28°   Wind: 9mph
Humidity: 65%   Direction: 220°SW
Pressure: 30"   Gusts: NA
Location:  46.45°N, 66.4°W
Report Text: CYFC 260600Z AUTO 22008KT 9SM CLR 04/M02 A3000 RMK SLP159
Loading
Personal Weather Stations






























Interactive Weather Map New forecast layout! Learn more

10-Day Weather Forecast

Advertisements
Track Severe Weather on mobile